sensor_id;sensor_type;location;lat;lon;timestamp;P1;durP1;ratioP1;P2;durP2;ratioP2
4313;SDS011;2170;48.794;9.182;2023-06-04T00:00:31;7.83;;;7.20;;
4313;SDS011;2170;48.794;9.182;2023-06-04T00:03:29;8.60;;;7.90;;
4313;SDS011;2170;48.794;9.182;2023-06-04T00:06:20;7.63;;;7.03;;
4313;SDS011;2170;48.794;9.182;2023-06-04T00:09:07;8.57;;;7.80;;
4313;SDS011;2170;48.794;9.182;2023-06-04T00:11:39;8.03;;;7.23;;
4313;SDS011;2170;48.794;9.182;2023-06-04T00:14:17;10.10;;;7.87;;
4313;SDS011;2170;48.794;9.182;2023-06-04T00:17:10;9.83;;;7.13;;
4313;SDS011;2170;48.794;9.182;2023-06-04T00:19:53;9.07;;;7.77;;
4313;SDS011;2170;48.794;9.182;2023-06-04T00:22:27;8.43;;;7.63;;
4313;SDS011;2170;48.794;9.182;2023-06-04T00:25:16;9.40;;;7.53;;
4313;SDS011;2170;48.794;9.182;2023-06-04T00:28:27;8.00;;;7.23;;
4313;SDS011;2170;48.794;9.182;2023-06-04T00:31:02;8.13;;;7.33;;
4313;SDS011;2170;48.794;9.182;2023-06-04T00:33:43;8.40;;;7.60;;
4313;SDS011;2170;48.794;9.182;2023-06-04T00:36:58;8.07;;;7.27;;
4313;SDS011;2170;48.794;9.182;2023-06-04T00:40:09;7.63;;;6.80;;
4313;SDS011;2170;48.794;9.182;2023-06-04T00:43:12;7.90;;;7.20;;
4313;SDS011;2170;48.794;9.182;2023-06-04T00:46:28;8.83;;;7.33;;
4313;SDS011;2170;48.794;9.182;2023-06-04T00:49:15;7.77;;;7.10;;
4313;SDS011;2170;48.794;9.182;2023-06-04T00:51:49;7.97;;;7.17;;
4313;SDS011;2170;48.794;9.182;2023-06-04T00:54:22;7.00;;;6.50;;
4313;SDS011;2170;48.794;9.182;2023-06-04T01:00:29;9.13;;;6.90;;
4313;SDS011;2170;48.794;9.182;2023-06-04T01:03:23;7.40;;;6.70;;
4313;SDS011;2170;48.794;9.182;2023-06-04T01:06:18;8.70;;;7.03;;
4313;SDS011;2170;48.794;9.182;2023-06-04T01:09:05;9.20;;;7.23;;
4313;SDS011;2170;48.794;9.182;2023-06-04T01:11:55;7.40;;;6.50;;
4313;SDS011;2170;48.794;9.182;2023-06-04T01:14:29;9.93;;;6.60;;
4313;SDS011;2170;48.794;9.182;2023-06-04T01:17:17;8.23;;;7.53;;
4313;SDS011;2170;48.794;9.182;2023-06-04T01:20:07;9.90;;;7.40;;
4313;SDS011;2170;48.794;9.182;2023-06-04T01:23:03;8.00;;;7.30;;
4313;SDS011;2170;48.794;9.182;2023-06-04T01:25:59;7.57;;;6.87;;
4313;SDS011;2170;48.794;9.182;2023-06-04T01:28:36;7.33;;;6.67;;
4313;SDS011;2170;48.794;9.182;2023-06-04T01:31:35;7.50;;;6.80;;
4313;SDS011;2170;48.794;9.182;2023-06-04T01:34:24;7.30;;;6.50;;
4313;SDS011;2170;48.794;9.182;2023-06-04T01:37:00;6.80;;;6.20;;
4313;SDS011;2170;48.794;9.182;2023-06-04T01:40:03;7.20;;;6.60;;
4313;SDS011;2170;48.794;9.182;2023-06-04T01:42:57;6.73;;;6.10;;
4313;SDS011;2170;48.794;9.182;2023-06-04T01:45:44;8.17;;;7.10;;
4313;SDS011;2170;48.794;9.182;2023-06-04T01:48:27;6.57;;;5.97;;
4313;SDS011;2170;48.794;9.182;2023-06-04T01:51:13;6.87;;;6.20;;
4313;SDS011;2170;48.794;9.182;2023-06-04T01:53:48;7.33;;;6.63;;
4313;SDS011;2170;48.794;9.182;2023-06-04T01:56:20;7.27;;;6.57;;
4313;SDS011;2170;48.794;9.182;2023-06-04T01:58:54;8.17;;;7.13;;
4313;SDS011;2170;48.794;9.182;2023-06-04T02:01:22;8.33;;;6.70;;
4313;SDS011;2170;48.794;9.182;2023-06-04T02:03:58;6.17;;;5.67;;
4313;SDS011;2170;48.794;9.182;2023-06-04T02:06:42;7.17;;;6.33;;
4313;SDS011;2170;48.794;9.182;2023-06-04T02:09:25;6.37;;;5.70;;
4313;SDS011;2170;48.794;9.182;2023-06-04T02:12:11;7.93;;;7.07;;
4313;SDS011;2170;48.794;9.182;2023-06-04T02:14:40;7.33;;;6.60;;
4313;SDS011;2170;48.794;9.182;2023-06-04T02:17:21;6.73;;;6.13;;
4313;SDS011;2170;48.794;9.182;2023-06-04T02:19:57;8.37;;;6.60;;
4313;SDS011;2170;48.794;9.182;2023-06-04T02:22:31;6.27;;;5.60;;
4313;SDS011;2170;48.794;9.182;2023-06-04T02:25:00;6.93;;;6.23;;
4313;SDS011;2170;48.794;9.182;2023-06-04T02:27:32;6.20;;;5.70;;
4313;SDS011;2170;48.794;9.182;2023-06-04T02:30:16;7.00;;;6.30;;
4313;SDS011;2170;48.794;9.182;2023-06-04T02:32:55;7.27;;;6.60;;
4313;SDS011;2170;48.794;9.182;2023-06-04T02:35:29;5.83;;;5.40;;
4313;SDS011;2170;48.794;9.182;2023-06-04T02:37:58;9.47;;;6.47;;
4313;SDS011;2170;48.794;9.182;2023-06-04T02:40:39;6.13;;;5.47;;
4313;SDS011;2170;48.794;9.182;2023-06-04T02:43:12;7.90;;;6.10;;
4313;SDS011;2170;48.794;9.182;2023-06-04T02:45:40;7.00;;;6.30;;
4313;SDS011;2170;48.794;9.182;2023-06-04T02:48:10;6.10;;;5.60;;
4313;SDS011;2170;48.794;9.182;2023-06-04T02:50:45;6.20;;;5.40;;
4313;SDS011;2170;48.794;9.182;2023-06-04T02:53:17;6.73;;;5.60;;
4313;SDS011;2170;48.794;9.182;2023-06-04T02:55:59;5.90;;;5.40;;
4313;SDS011;2170;48.794;9.182;2023-06-04T02:58:50;5.57;;;5.07;;
4313;SDS011;2170;48.794;9.182;2023-06-04T03:01:21;6.37;;;5.60;;
4313;SDS011;2170;48.794;9.182;2023-06-04T03:04:11;5.10;;;4.60;;
4313;SDS011;2170;48.794;9.182;2023-06-04T03:06:43;5.13;;;4.63;;
4313;SDS011;2170;48.794;9.182;2023-06-04T03:09:23;5.30;;;4.83;;
4313;SDS011;2170;48.794;9.182;2023-06-04T03:11:58;5.10;;;4.60;;
4313;SDS011;2170;48.794;9.182;2023-06-04T03:14:31;5.37;;;4.97;;
4313;SDS011;2170;48.794;9.182;2023-06-04T03:17:04;4.50;;;4.20;;
4313;SDS011;2170;48.794;9.182;2023-06-04T03:19:38;4.83;;;4.50;;
4313;SDS011;2170;48.794;9.182;2023-06-04T03:22:08;7.57;;;4.50;;
4313;SDS011;2170;48.794;9.182;2023-06-04T03:24:37;5.27;;;4.87;;
4313;SDS011;2170;48.794;9.182;2023-06-04T03:27:11;6.47;;;5.07;;
4313;SDS011;2170;48.794;9.182;2023-06-04T03:29:41;5.50;;;5.00;;
4313;SDS011;2170;48.794;9.182;2023-06-04T03:32:16;5.77;;;4.30;;
4313;SDS011;2170;48.794;9.182;2023-06-04T03:34:44;5.30;;;4.90;;
4313;SDS011;2170;48.794;9.182;2023-06-04T03:37:16;5.23;;;4.70;;
4313;SDS011;2170;48.794;9.182;2023-06-04T03:39:44;4.67;;;4.27;;
4313;SDS011;2170;48.794;9.182;2023-06-04T03:42:14;5.00;;;4.60;;
4313;SDS011;2170;48.794;9.182;2023-06-04T03:44:47;5.73;;;5.33;;
4313;SDS011;2170;48.794;9.182;2023-06-04T03:47:16;4.90;;;4.40;;
4313;SDS011;2170;48.794;9.182;2023-06-04T03:49:57;5.40;;;4.50;;
4313;SDS011;2170;48.794;9.182;2023-06-04T03:52:32;7.80;;;4.67;;
4313;SDS011;2170;48.794;9.182;2023-06-04T03:55:05;5.23;;;4.73;;
4313;SDS011;2170;48.794;9.182;2023-06-04T03:57:36;5.10;;;4.70;;
4313;SDS011;2170;48.794;9.182;2023-06-04T04:00:10;4.30;;;4.00;;
4313;SDS011;2170;48.794;9.182;2023-06-04T04:02:39;4.50;;;4.20;;
4313;SDS011;2170;48.794;9.182;2023-06-04T04:05:18;5.37;;;4.97;;
4313;SDS011;2170;48.794;9.182;2023-06-04T04:07:54;5.23;;;4.83;;
4313;SDS011;2170;48.794;9.182;2023-06-04T04:10:26;5.07;;;4.67;;
4313;SDS011;2170;48.794;9.182;2023-06-04T04:12:55;4.97;;;4.57;;
4313;SDS011;2170;48.794;9.182;2023-06-04T04:15:46;5.07;;;4.23;;
4313;SDS011;2170;48.794;9.182;2023-06-04T04:18:40;5.23;;;4.73;;
4313;SDS011;2170;48.794;9.182;2023-06-04T04:21:13;5.70;;;5.07;;
4313;SDS011;2170;48.794;9.182;2023-06-04T04:23:44;5.40;;;4.90;;
4313;SDS011;2170;48.794;9.182;2023-06-04T04:26:17;8.80;;;6.57;;
4313;SDS011;2170;48.794;9.182;2023-06-04T04:28:58;6.77;;;5.07;;
4313;SDS011;2170;48.794;9.182;2023-06-04T04:31:32;6.20;;;5.43;;
4313;SDS011;2170;48.794;9.182;2023-06-04T04:34:15;5.83;;;5.23;;
4313;SDS011;2170;48.794;9.182;2023-06-04T04:36:48;5.97;;;5.30;;
4313;SDS011;2170;48.794;9.182;2023-06-04T04:39:23;5.33;;;4.93;;
4313;SDS011;2170;48.794;9.182;2023-06-04T04:42:02;6.70;;;6.10;;
4313;SDS011;2170;48.794;9.182;2023-06-04T04:44:34;5.67;;;5.27;;
4313;SDS011;2170;48.794;9.182;2023-06-04T04:47:17;6.20;;;5.60;;
4313;SDS011;2170;48.794;9.182;2023-06-04T04:49:55;6.00;;;5.40;;
4313;SDS011;2170;48.794;9.182;2023-06-04T04:52:32;5.23;;;4.77;;
4313;SDS011;2170;48.794;9.182;2023-06-04T04:55:08;8.37;;;6.37;;
4313;SDS011;2170;48.794;9.182;2023-06-04T04:57:37;5.83;;;5.27;;
4313;SDS011;2170;48.794;9.182;2023-06-04T05:00:06;5.90;;;5.30;;
4313;SDS011;2170;48.794;9.182;2023-06-04T05:02:37;5.67;;;5.20;;
4313;SDS011;2170;48.794;9.182;2023-06-04T05:05:07;7.13;;;5.30;;
4313;SDS011;2170;48.794;9.182;2023-06-04T05:07:36;5.50;;;4.90;;
4313;SDS011;2170;48.794;9.182;2023-06-04T05:10:04;4.73;;;4.33;;
4313;SDS011;2170;48.794;9.182;2023-06-04T05:12:32;4.83;;;3.93;;
4313;SDS011;2170;48.794;9.182;2023-06-04T05:15:00;4.73;;;4.33;;
4313;SDS011;2170;48.794;9.182;2023-06-04T05:17:35;5.40;;;4.47;;
4313;SDS011;2170;48.794;9.182;2023-06-04T05:20:06;4.10;;;3.70;;
4313;SDS011;2170;48.794;9.182;2023-06-04T05:22:37;5.97;;;4.33;;
4313;SDS011;2170;48.794;9.182;2023-06-04T05:25:05;5.33;;;4.33;;
4313;SDS011;2170;48.794;9.182;2023-06-04T05:27:33;4.00;;;3.70;;
4313;SDS011;2170;48.794;9.182;2023-06-04T05:30:02;5.10;;;4.60;;
4313;SDS011;2170;48.794;9.182;2023-06-04T05:32:30;5.87;;;4.07;;
4313;SDS011;2170;48.794;9.182;2023-06-04T05:35:03;5.00;;;3.70;;
4313;SDS011;2170;48.794;9.182;2023-06-04T05:37:35;4.73;;;3.97;;
4313;SDS011;2170;48.794;9.182;2023-06-04T05:40:06;3.30;;;3.10;;
4313;SDS011;2170;48.794;9.182;2023-06-04T05:42:40;8.73;;;3.80;;
4313;SDS011;2170;48.794;9.182;2023-06-04T05:45:17;4.10;;;3.30;;
4313;SDS011;2170;48.794;9.182;2023-06-04T05:47:46;3.40;;;3.10;;
4313;SDS011;2170;48.794;9.182;2023-06-04T05:50:19;5.27;;;3.47;;
4313;SDS011;2170;48.794;9.182;2023-06-04T05:52:47;4.27;;;3.37;;
4313;SDS011;2170;48.794;9.182;2023-06-04T05:55:18;4.40;;;4.00;;
4313;SDS011;2170;48.794;9.182;2023-06-04T05:57:50;4.27;;;3.87;;
4313;SDS011;2170;48.794;9.182;2023-06-04T06:00:21;8.30;;;3.60;;
4313;SDS011;2170;48.794;9.182;2023-06-04T06:02:50;3.60;;;3.30;;
4313;SDS011;2170;48.794;9.182;2023-06-04T06:05:28;4.23;;;3.93;;
4313;SDS011;2170;48.794;9.182;2023-06-04T06:07:56;4.00;;;3.70;;
4313;SDS011;2170;48.794;9.182;2023-06-04T06:10:29;3.73;;;3.40;;
4313;SDS011;2170;48.794;9.182;2023-06-04T06:13:00;3.43;;;3.13;;
4313;SDS011;2170;48.794;9.182;2023-06-04T06:15:28;6.90;;;3.87;;
4313;SDS011;2170;48.794;9.182;2023-06-04T06:17:58;2.73;;;2.53;;
4313;SDS011;2170;48.794;9.182;2023-06-04T06:20:27;3.43;;;3.13;;
4313;SDS011;2170;48.794;9.182;2023-06-04T06:22:55;3.20;;;2.90;;
4313;SDS011;2170;48.794;9.182;2023-06-04T06:25:24;3.87;;;3.57;;
4313;SDS011;2170;48.794;9.182;2023-06-04T06:27:52;4.20;;;3.20;;
4313;SDS011;2170;48.794;9.182;2023-06-04T06:30:21;3.70;;;3.40;;
4313;SDS011;2170;48.794;9.182;2023-06-04T06:32:52;3.97;;;3.07;;
4313;SDS011;2170;48.794;9.182;2023-06-04T06:35:21;3.33;;;3.10;;
4313;SDS011;2170;48.794;9.182;2023-06-04T06:37:53;3.27;;;2.93;;
4313;SDS011;2170;48.794;9.182;2023-06-04T06:40:22;3.80;;;3.13;;
4313;SDS011;2170;48.794;9.182;2023-06-04T06:42:56;3.20;;;2.87;;
4313;SDS011;2170;48.794;9.182;2023-06-04T06:45:29;3.13;;;2.93;;
4313;SDS011;2170;48.794;9.182;2023-06-04T06:47:57;3.20;;;2.93;;
4313;SDS011;2170;48.794;9.182;2023-06-04T06:50:25;2.30;;;2.20;;
4313;SDS011;2170;48.794;9.182;2023-06-04T06:52:54;3.40;;;2.50;;
4313;SDS011;2170;48.794;9.182;2023-06-04T06:55:22;3.77;;;3.10;;
4313;SDS011;2170;48.794;9.182;2023-06-04T06:57:54;5.13;;;3.27;;
4313;SDS011;2170;48.794;9.182;2023-06-04T07:00:22;2.90;;;2.70;;
4313;SDS011;2170;48.794;9.182;2023-06-04T07:02:50;3.70;;;3.40;;
4313;SDS011;2170;48.794;9.182;2023-06-04T07:05:19;2.70;;;2.50;;
4313;SDS011;2170;48.794;9.182;2023-06-04T07:07:50;3.70;;;3.40;;
4313;SDS011;2170;48.794;9.182;2023-06-04T07:10:24;3.10;;;2.73;;
4313;SDS011;2170;48.794;9.182;2023-06-04T07:12:52;3.37;;;3.13;;
4313;SDS011;2170;48.794;9.182;2023-06-04T07:15:21;3.27;;;2.97;;
4313;SDS011;2170;48.794;9.182;2023-06-04T07:17:50;3.80;;;3.10;;
4313;SDS011;2170;48.794;9.182;2023-06-04T07:20:18;3.33;;;2.97;;
4313;SDS011;2170;48.794;9.182;2023-06-04T07:22:47;3.80;;;3.00;;
4313;SDS011;2170;48.794;9.182;2023-06-04T07:25:19;3.77;;;3.10;;
4313;SDS011;2170;48.794;9.182;2023-06-04T07:27:53;4.33;;;2.90;;
4313;SDS011;2170;48.794;9.182;2023-06-04T07:30:31;5.77;;;3.20;;
4313;SDS011;2170;48.794;9.182;2023-06-04T07:33:09;3.73;;;3.43;;
4313;SDS011;2170;48.794;9.182;2023-06-04T07:35:41;3.30;;;3.00;;
4313;SDS011;2170;48.794;9.182;2023-06-04T07:38:11;3.53;;;3.27;;
4313;SDS011;2170;48.794;9.182;2023-06-04T07:40:45;3.17;;;2.77;;
4313;SDS011;2170;48.794;9.182;2023-06-04T07:43:19;4.70;;;3.40;;
4313;SDS011;2170;48.794;9.182;2023-06-04T07:45:54;3.13;;;2.83;;
4313;SDS011;2170;48.794;9.182;2023-06-04T07:48:24;3.43;;;3.10;;
4313;SDS011;2170;48.794;9.182;2023-06-04T07:50:56;3.43;;;3.20;;
4313;SDS011;2170;48.794;9.182;2023-06-04T07:53:24;4.20;;;2.90;;
4313;SDS011;2170;48.794;9.182;2023-06-04T07:55:58;4.23;;;3.83;;
4313;SDS011;2170;48.794;9.182;2023-06-04T07:58:34;3.40;;;3.10;;
4313;SDS011;2170;48.794;9.182;2023-06-04T08:01:06;3.63;;;3.10;;
4313;SDS011;2170;48.794;9.182;2023-06-04T08:03:34;3.40;;;3.10;;
4313;SDS011;2170;48.794;9.182;2023-06-04T08:06:02;3.93;;;3.63;;
4313;SDS011;2170;48.794;9.182;2023-06-04T08:08:31;6.30;;;3.60;;
4313;SDS011;2170;48.794;9.182;2023-06-04T08:10:59;3.97;;;3.57;;
4313;SDS011;2170;48.794;9.182;2023-06-04T08:13:26;3.27;;;3.07;;
4313;SDS011;2170;48.794;9.182;2023-06-04T08:15:59;3.70;;;3.40;;
4313;SDS011;2170;48.794;9.182;2023-06-04T08:18:28;3.60;;;3.30;;
4313;SDS011;2170;48.794;9.182;2023-06-04T08:20:55;3.60;;;3.30;;
4313;SDS011;2170;48.794;9.182;2023-06-04T08:23:26;4.73;;;3.40;;
4313;SDS011;2170;48.794;9.182;2023-06-04T08:25:55;4.33;;;3.30;;
4313;SDS011;2170;48.794;9.182;2023-06-04T08:28:24;3.60;;;3.30;;
4313;SDS011;2170;48.794;9.182;2023-06-04T08:36:41;3.50;;;3.20;;
4313;SDS011;2170;48.794;9.182;2023-06-04T08:43:08;3.50;;;3.20;;
4313;SDS011;2170;48.794;9.182;2023-06-04T08:45:26;3.97;;;3.63;;
4313;SDS011;2170;48.794;9.182;2023-06-04T08:48:16;3.87;;;3.57;;
4313;SDS011;2170;48.794;9.182;2023-06-04T08:51:03;6.50;;;3.30;;
4313;SDS011;2170;48.794;9.182;2023-06-04T08:53:38;3.93;;;3.40;;
4313;SDS011;2170;48.794;9.182;2023-06-04T08:56:13;3.80;;;3.50;;
4313;SDS011;2170;48.794;9.182;2023-06-04T08:59:05;3.97;;;3.63;;
4313;SDS011;2170;48.794;9.182;2023-06-04T09:01:37;3.57;;;2.60;;
4313;SDS011;2170;48.794;9.182;2023-06-04T09:04:08;3.47;;;3.17;;
4313;SDS011;2170;48.794;9.182;2023-06-04T09:06:37;3.73;;;3.40;;
4313;SDS011;2170;48.794;9.182;2023-06-04T09:09:12;3.57;;;3.27;;
4313;SDS011;2170;48.794;9.182;2023-06-04T09:11:48;4.60;;;4.20;;
4313;SDS011;2170;48.794;9.182;2023-06-04T09:14:28;4.03;;;3.30;;
4313;SDS011;2170;48.794;9.182;2023-06-04T09:16:56;3.13;;;2.90;;
4313;SDS011;2170;48.794;9.182;2023-06-04T09:19:25;3.57;;;3.27;;
4313;SDS011;2170;48.794;9.182;2023-06-04T09:21:54;3.97;;;3.37;;
4313;SDS011;2170;48.794;9.182;2023-06-04T09:24:38;5.33;;;3.43;;
4313;SDS011;2170;48.794;9.182;2023-06-04T09:27:09;4.20;;;3.40;;
4313;SDS011;2170;48.794;9.182;2023-06-04T09:29:38;4.93;;;3.17;;
4313;SDS011;2170;48.794;9.182;2023-06-04T09:32:06;5.10;;;3.20;;
4313;SDS011;2170;48.794;9.182;2023-06-04T09:34:36;3.17;;;2.93;;
4313;SDS011;2170;48.794;9.182;2023-06-04T09:37:13;3.33;;;3.03;;
4313;SDS011;2170;48.794;9.182;2023-06-04T09:39:42;7.97;;;3.60;;
4313;SDS011;2170;48.794;9.182;2023-06-04T09:42:14;4.30;;;3.47;;
4313;SDS011;2170;48.794;9.182;2023-06-04T09:44:43;3.37;;;3.00;;
4313;SDS011;2170;48.794;9.182;2023-06-04T09:47:11;3.57;;;3.10;;
4313;SDS011;2170;48.794;9.182;2023-06-04T09:49:44;3.73;;;3.40;;
4313;SDS011;2170;48.794;9.182;2023-06-04T09:52:16;3.53;;;3.23;;
4313;SDS011;2170;48.794;9.182;2023-06-04T09:55:00;4.30;;;3.20;;
4313;SDS011;2170;48.794;9.182;2023-06-04T09:57:47;4.20;;;3.80;;
4313;SDS011;2170;48.794;9.182;2023-06-04T10:00:22;3.73;;;3.43;;
4313;SDS011;2170;48.794;9.182;2023-06-04T10:03:01;4.10;;;3.80;;
4313;SDS011;2170;48.794;9.182;2023-06-04T10:06:02;4.30;;;3.90;;
4313;SDS011;2170;48.794;9.182;2023-06-04T10:08:48;3.83;;;3.53;;
4313;SDS011;2170;48.794;9.182;2023-06-04T10:11:41;3.60;;;3.17;;
4313;SDS011;2170;48.794;9.182;2023-06-04T10:14:35;5.57;;;3.60;;
4313;SDS011;2170;48.794;9.182;2023-06-04T10:20:44;3.87;;;3.30;;
4313;SDS011;2170;48.794;9.182;2023-06-04T10:23:48;4.63;;;4.00;;
4313;SDS011;2170;48.794;9.182;2023-06-04T10:26:30;4.67;;;3.63;;
4313;SDS011;2170;48.794;9.182;2023-06-04T10:29:01;4.00;;;3.70;;
4313;SDS011;2170;48.794;9.182;2023-06-04T10:31:32;3.67;;;3.47;;
4313;SDS011;2170;48.794;9.182;2023-06-04T10:34:11;5.87;;;3.83;;
4313;SDS011;2170;48.794;9.182;2023-06-04T10:36:49;5.30;;;3.63;;
4313;SDS011;2170;48.794;9.182;2023-06-04T10:39:31;3.87;;;3.57;;
4313;SDS011;2170;48.794;9.182;2023-06-04T10:42:23;4.20;;;3.80;;
4313;SDS011;2170;48.794;9.182;2023-06-04T10:45:11;4.80;;;4.10;;
4313;SDS011;2170;48.794;9.182;2023-06-04T10:47:43;4.73;;;4.20;;
4313;SDS011;2170;48.794;9.182;2023-06-04T10:53:37;4.40;;;3.87;;
4313;SDS011;2170;48.794;9.182;2023-06-04T10:56:23;4.37;;;3.90;;
4313;SDS011;2170;48.794;9.182;2023-06-04T10:58:55;4.27;;;3.60;;
4313;SDS011;2170;48.794;9.182;2023-06-04T11:01:28;4.17;;;3.87;;
4313;SDS011;2170;48.794;9.182;2023-06-04T11:04:57;4.37;;;3.97;;
4313;SDS011;2170;48.794;9.182;2023-06-04T11:17:12;4.30;;;4.00;;
4313;SDS011;2170;48.794;9.182;2023-06-04T11:20:15;4.37;;;3.97;;
4313;SDS011;2170;48.794;9.182;2023-06-04T11:22:50;4.97;;;4.30;;
4313;SDS011;2170;48.794;9.182;2023-06-04T11:25:22;5.30;;;3.70;;
4313;SDS011;2170;48.794;9.182;2023-06-04T11:28:15;4.37;;;3.60;;
4313;SDS011;2170;48.794;9.182;2023-06-04T11:30:55;3.53;;;3.30;;
4313;SDS011;2170;48.794;9.182;2023-06-04T11:33:30;3.50;;;3.20;;
4313;SDS011;2170;48.794;9.182;2023-06-04T11:36:08;7.20;;;3.80;;
4313;SDS011;2170;48.794;9.182;2023-06-04T11:38:37;3.67;;;3.37;;
4313;SDS011;2170;48.794;9.182;2023-06-04T11:41:24;4.13;;;3.83;;
4313;SDS011;2170;48.794;9.182;2023-06-04T11:44:23;4.60;;;4.20;;
4313;SDS011;2170;48.794;9.182;2023-06-04T11:47:10;4.30;;;4.00;;
4313;SDS011;2170;48.794;9.182;2023-06-04T11:53:17;4.30;;;4.00;;
4313;SDS011;2170;48.794;9.182;2023-06-04T11:56:16;3.83;;;3.53;;
4313;SDS011;2170;48.794;9.182;2023-06-04T12:02:18;6.30;;;3.70;;
4313;SDS011;2170;48.794;9.182;2023-06-04T12:05:13;4.80;;;4.40;;
4313;SDS011;2170;48.794;9.182;2023-06-04T12:11:43;4.77;;;4.37;;
4313;SDS011;2170;48.794;9.182;2023-06-04T12:17:01;5.43;;;4.63;;
4313;SDS011;2170;48.794;9.182;2023-06-04T12:19:44;5.70;;;4.70;;
4313;SDS011;2170;48.794;9.182;2023-06-04T12:22:15;5.10;;;4.57;;
4313;SDS011;2170;48.794;9.182;2023-06-04T12:24:48;5.40;;;4.90;;
4313;SDS011;2170;48.794;9.182;2023-06-04T12:27:20;4.80;;;4.40;;
4313;SDS011;2170;48.794;9.182;2023-06-04T12:29:57;5.20;;;4.70;;
4313;SDS011;2170;48.794;9.182;2023-06-04T12:32:27;4.37;;;4.00;;
4313;SDS011;2170;48.794;9.182;2023-06-04T12:35:03;4.77;;;4.40;;
4313;SDS011;2170;48.794;9.182;2023-06-04T12:37:33;8.43;;;3.90;;
4313;SDS011;2170;48.794;9.182;2023-06-04T12:40:02;3.73;;;3.43;;
4313;SDS011;2170;48.794;9.182;2023-06-04T12:42:34;4.30;;;3.90;;
4313;SDS011;2170;48.794;9.182;2023-06-04T12:45:18;4.47;;;4.07;;
4313;SDS011;2170;48.794;9.182;2023-06-04T12:47:55;4.27;;;3.97;;
4313;SDS011;2170;48.794;9.182;2023-06-04T12:50:33;4.73;;;4.33;;
4313;SDS011;2170;48.794;9.182;2023-06-04T12:53:05;4.53;;;3.77;;
4313;SDS011;2170;48.794;9.182;2023-06-04T12:55:34;5.13;;;4.20;;
4313;SDS011;2170;48.794;9.182;2023-06-04T12:58:11;4.70;;;4.23;;
4313;SDS011;2170;48.794;9.182;2023-06-04T13:00:40;4.10;;;3.80;;
4313;SDS011;2170;48.794;9.182;2023-06-04T13:03:09;4.80;;;4.37;;
4313;SDS011;2170;48.794;9.182;2023-06-04T13:05:50;3.77;;;3.47;;
4313;SDS011;2170;48.794;9.182;2023-06-04T13:08:19;4.67;;;4.37;;
4313;SDS011;2170;48.794;9.182;2023-06-04T13:10:48;4.53;;;3.80;;
4313;SDS011;2170;48.794;9.182;2023-06-04T13:13:18;4.40;;;4.00;;
4313;SDS011;2170;48.794;9.182;2023-06-04T13:15:50;4.57;;;4.17;;
4313;SDS011;2170;48.794;9.182;2023-06-04T13:18:21;4.80;;;4.40;;
4313;SDS011;2170;48.794;9.182;2023-06-04T13:20:52;4.80;;;3.90;;
4313;SDS011;2170;48.794;9.182;2023-06-04T13:23:22;3.97;;;3.67;;
4313;SDS011;2170;48.794;9.182;2023-06-04T13:25:51;3.63;;;3.40;;
4313;SDS011;2170;48.794;9.182;2023-06-04T13:28:21;4.00;;;3.70;;
4313;SDS011;2170;48.794;9.182;2023-06-04T13:30:51;4.70;;;4.00;;
4313;SDS011;2170;48.794;9.182;2023-06-04T13:33:19;6.03;;;3.90;;
4313;SDS011;2170;48.794;9.182;2023-06-04T13:35:48;3.80;;;3.53;;
4313;SDS011;2170;48.794;9.182;2023-06-04T13:38:19;4.23;;;3.80;;
4313;SDS011;2170;48.794;9.182;2023-06-04T13:40:51;4.00;;;3.70;;
4313;SDS011;2170;48.794;9.182;2023-06-04T13:43:36;3.90;;;3.60;;
4313;SDS011;2170;48.794;9.182;2023-06-04T13:46:11;4.17;;;3.87;;
4313;SDS011;2170;48.794;9.182;2023-06-04T13:48:42;5.17;;;4.00;;
4313;SDS011;2170;48.794;9.182;2023-06-04T13:51:12;4.33;;;4.13;;
4313;SDS011;2170;48.794;9.182;2023-06-04T13:53:43;5.17;;;3.70;;
4313;SDS011;2170;48.794;9.182;2023-06-04T13:56:14;4.17;;;3.87;;
4313;SDS011;2170;48.794;9.182;2023-06-04T13:58:43;4.37;;;4.00;;
4313;SDS011;2170;48.794;9.182;2023-06-04T14:01:16;3.47;;;3.27;;
4313;SDS011;2170;48.794;9.182;2023-06-04T14:03:45;3.83;;;3.53;;
4313;SDS011;2170;48.794;9.182;2023-06-04T14:06:14;3.70;;;3.40;;
4313;SDS011;2170;48.794;9.182;2023-06-04T14:08:58;4.00;;;3.70;;
4313;SDS011;2170;48.794;9.182;2023-06-04T14:11:26;4.20;;;3.70;;
4313;SDS011;2170;48.794;9.182;2023-06-04T14:13:59;4.07;;;3.57;;
4313;SDS011;2170;48.794;9.182;2023-06-04T14:16:29;4.27;;;3.97;;
4313;SDS011;2170;48.794;9.182;2023-06-04T14:19:01;3.93;;;3.40;;
4313;SDS011;2170;48.794;9.182;2023-06-04T14:21:33;3.73;;;3.50;;
4313;SDS011;2170;48.794;9.182;2023-06-04T14:24:54;3.57;;;3.27;;
4313;SDS011;2170;48.794;9.182;2023-06-04T14:34:05;4.63;;;3.97;;
4313;SDS011;2170;48.794;9.182;2023-06-04T14:36:50;3.97;;;3.67;;
4313;SDS011;2170;48.794;9.182;2023-06-04T14:39:23;3.83;;;3.53;;
4313;SDS011;2170;48.794;9.182;2023-06-04T14:42:39;3.87;;;3.57;;
4313;SDS011;2170;48.794;9.182;2023-06-04T14:48:13;4.53;;;4.20;;
4313;SDS011;2170;48.794;9.182;2023-06-04T14:54:02;4.70;;;4.17;;
4313;SDS011;2170;48.794;9.182;2023-06-04T14:57:32;4.23;;;3.93;;
4313;SDS011;2170;48.794;9.182;2023-06-04T15:00:45;3.67;;;3.37;;
4313;SDS011;2170;48.794;9.182;2023-06-04T15:03:15;4.53;;;3.83;;
4313;SDS011;2170;48.794;9.182;2023-06-04T15:05:52;7.00;;;4.27;;
4313;SDS011;2170;48.794;9.182;2023-06-04T15:08:24;4.40;;;4.00;;
4313;SDS011;2170;48.794;9.182;2023-06-04T15:11:06;3.93;;;3.63;;
4313;SDS011;2170;48.794;9.182;2023-06-04T15:13:47;3.90;;;3.60;;
4313;SDS011;2170;48.794;9.182;2023-06-04T15:16:57;3.83;;;3.53;;
4313;SDS011;2170;48.794;9.182;2023-06-04T15:19:44;4.43;;;4.13;;
4313;SDS011;2170;48.794;9.182;2023-06-04T15:22:21;3.30;;;3.10;;
4313;SDS011;2170;48.794;9.182;2023-06-04T15:25:08;4.53;;;4.03;;
4313;SDS011;2170;48.794;9.182;2023-06-04T15:28:10;3.70;;;3.50;;
4313;SDS011;2170;48.794;9.182;2023-06-04T15:33:37;4.30;;;4.00;;
4313;SDS011;2170;48.794;9.182;2023-06-04T15:36:27;3.93;;;3.53;;
4313;SDS011;2170;48.794;9.182;2023-06-04T15:39:40;4.87;;;3.97;;
4313;SDS011;2170;48.794;9.182;2023-06-04T15:45:21;4.20;;;3.50;;
4313;SDS011;2170;48.794;9.182;2023-06-04T15:47:57;4.00;;;3.63;;
4313;SDS011;2170;48.794;9.182;2023-06-04T15:50:26;4.47;;;4.07;;
4313;SDS011;2170;48.794;9.182;2023-06-04T15:53:35;4.33;;;4.03;;
4313;SDS011;2170;48.794;9.182;2023-06-04T15:56:10;5.30;;;3.90;;
4313;SDS011;2170;48.794;9.182;2023-06-04T15:58:53;4.40;;;4.00;;
4313;SDS011;2170;48.794;9.182;2023-06-04T16:04:19;3.83;;;3.53;;
4313;SDS011;2170;48.794;9.182;2023-06-04T16:04:51;4.00;;;3.70;;
4313;SDS011;2170;48.794;9.182;2023-06-04T16:07:23;3.50;;;3.30;;
4313;SDS011;2170;48.794;9.182;2023-06-04T16:10:43;4.40;;;3.90;;
4313;SDS011;2170;48.794;9.182;2023-06-04T16:13:14;3.60;;;3.30;;
4313;SDS011;2170;48.794;9.182;2023-06-04T16:19:26;3.70;;;3.40;;
4313;SDS011;2170;48.794;9.182;2023-06-04T16:22:04;3.83;;;3.53;;
4313;SDS011;2170;48.794;9.182;2023-06-04T16:26:48;3.57;;;3.27;;
4313;SDS011;2170;48.794;9.182;2023-06-04T16:28:29;3.53;;;3.33;;
4313;SDS011;2170;48.794;9.182;2023-06-04T16:31:01;3.63;;;3.33;;
4313;SDS011;2170;48.794;9.182;2023-06-04T16:34:02;3.70;;;3.33;;
4313;SDS011;2170;48.794;9.182;2023-06-04T16:36:55;3.80;;;3.50;;
4313;SDS011;2170;48.794;9.182;2023-06-04T16:39:39;5.20;;;3.60;;
4313;SDS011;2170;48.794;9.182;2023-06-04T16:42:13;3.97;;;3.67;;
4313;SDS011;2170;48.794;9.182;2023-06-04T16:44:44;3.70;;;3.40;;
4313;SDS011;2170;48.794;9.182;2023-06-04T16:47:17;4.00;;;3.13;;
4313;SDS011;2170;48.794;9.182;2023-06-04T16:49:49;4.20;;;3.77;;
4313;SDS011;2170;48.794;9.182;2023-06-04T16:52:19;4.70;;;3.17;;
4313;SDS011;2170;48.794;9.182;2023-06-04T16:54:52;4.93;;;3.30;;
4313;SDS011;2170;48.794;9.182;2023-06-04T16:57:42;6.03;;;3.43;;
4313;SDS011;2170;48.794;9.182;2023-06-04T17:00:35;3.53;;;3.07;;
4313;SDS011;2170;48.794;9.182;2023-06-04T17:03:19;4.40;;;3.57;;
4313;SDS011;2170;48.794;9.182;2023-06-04T17:05:48;3.47;;;3.20;;
4313;SDS011;2170;48.794;9.182;2023-06-04T17:08:36;4.37;;;3.70;;
4313;SDS011;2170;48.794;9.182;2023-06-04T17:11:27;4.37;;;3.87;;
4313;SDS011;2170;48.794;9.182;2023-06-04T17:13:58;3.53;;;3.23;;
4313;SDS011;2170;48.794;9.182;2023-06-04T17:16:27;3.87;;;3.47;;
4313;SDS011;2170;48.794;9.182;2023-06-04T17:19:16;3.00;;;2.80;;
4313;SDS011;2170;48.794;9.182;2023-06-04T17:22:17;3.03;;;2.80;;
4313;SDS011;2170;48.794;9.182;2023-06-04T17:24:50;5.47;;;3.10;;